sensor_id;sensor_type;location;lat;lon;timestamp;P1;durP1;ratioP1;P2;durP2;ratioP2
49422;SDS011;36998;51.974;20.150;2022-08-07T00:00:09;4.05;;;2.25;;
49422;SDS011;36998;51.974;20.150;2022-08-07T00:02:37;4.85;;;2.83;;
49422;SDS011;36998;51.974;20.150;2022-08-07T00:05:03;4.90;;;2.30;;
49422;SDS011;36998;51.974;20.150;2022-08-07T00:07:29;7.50;;;2.13;;
49422;SDS011;36998;51.974;20.150;2022-08-07T00:09:54;5.68;;;1.95;;
49422;SDS011;36998;51.974;20.150;2022-08-07T00:12:19;7.32;;;2.38;;
49422;SDS011;36998;51.974;20.150;2022-08-07T00:14:45;4.50;;;2.33;;
49422;SDS011;36998;51.974;20.150;2022-08-07T00:17:10;4.22;;;2.50;;
49422;SDS011;36998;51.974;20.150;2022-08-07T00:19:36;6.82;;;2.58;;
49422;SDS011;36998;51.974;20.150;2022-08-07T00:22:02;9.55;;;3.10;;
49422;SDS011;36998;51.974;20.150;2022-08-07T00:24:27;6.85;;;2.38;;
49422;SDS011;36998;51.974;20.150;2022-08-07T00:26:53;4.13;;;2.53;;
49422;SDS011;36998;51.974;20.150;2022-08-07T00:29:18;4.88;;;3.00;;
49422;SDS011;36998;51.974;20.150;2022-08-07T00:31:50;3.97;;;2.25;;
49422;SDS011;36998;51.974;20.150;2022-08-07T00:34:16;4.97;;;2.38;;
49422;SDS011;36998;51.974;20.150;2022-08-07T00:36:42;9.50;;;2.13;;
49422;SDS011;36998;51.974;20.150;2022-08-07T00:39:08;2.88;;;2.33;;
49422;SDS011;36998;51.974;20.150;2022-08-07T00:41:35;6.47;;;2.58;;
49422;SDS011;36998;51.974;20.150;2022-08-07T00:44:00;8.05;;;2.50;;
49422;SDS011;36998;51.974;20.150;2022-08-07T00:46:25;10.05;;;2.80;;
49422;SDS011;36998;51.974;20.150;2022-08-07T00:48:51;6.15;;;2.97;;
49422;SDS011;36998;51.974;20.150;2022-08-07T00:51:16;7.35;;;2.72;;
49422;SDS011;36998;51.974;20.150;2022-08-07T00:53:42;8.10;;;3.60;;
49422;SDS011;36998;51.974;20.150;2022-08-07T00:56:08;5.78;;;3.38;;
49422;SDS011;36998;51.974;20.150;2022-08-07T00:58:36;7.47;;;3.65;;
49422;SDS011;36998;51.974;20.150;2022-08-07T01:01:06;5.78;;;3.85;;
49422;SDS011;36998;51.974;20.150;2022-08-07T01:03:32;6.80;;;3.80;;
49422;SDS011;36998;51.974;20.150;2022-08-07T01:05:57;6.93;;;3.60;;
49422;SDS011;36998;51.974;20.150;2022-08-07T01:08:23;9.23;;;4.03;;
49422;SDS011;36998;51.974;20.150;2022-08-07T01:10:48;9.90;;;2.97;;
49422;SDS011;36998;51.974;20.150;2022-08-07T01:13:14;7.82;;;3.15;;
49422;SDS011;36998;51.974;20.150;2022-08-07T01:15:39;4.88;;;2.20;;
49422;SDS011;36998;51.974;20.150;2022-08-07T01:18:06;3.28;;;2.03;;
49422;SDS011;36998;51.974;20.150;2022-08-07T01:20:36;7.45;;;2.50;;
49422;SDS011;36998;51.974;20.150;2022-08-07T01:23:06;5.35;;;2.65;;
49422;SDS011;36998;51.974;20.150;2022-08-07T01:25:32;7.28;;;3.35;;
49422;SDS011;36998;51.974;20.150;2022-08-07T01:27:59;4.30;;;2.50;;
49422;SDS011;36998;51.974;20.150;2022-08-07T01:30:25;3.67;;;2.65;;
49422;SDS011;36998;51.974;20.150;2022-08-07T01:32:52;8.23;;;2.83;;
49422;SDS011;36998;51.974;20.150;2022-08-07T01:35:17;6.15;;;2.67;;
49422;SDS011;36998;51.974;20.150;2022-08-07T01:37:46;7.68;;;3.22;;
49422;SDS011;36998;51.974;20.150;2022-08-07T01:40:12;9.82;;;3.33;;
49422;SDS011;36998;51.974;20.150;2022-08-07T01:42:49;5.43;;;3.58;;
49422;SDS011;36998;51.974;20.150;2022-08-07T01:45:15;8.75;;;4.15;;
49422;SDS011;36998;51.974;20.150;2022-08-07T01:47:42;8.13;;;4.13;;
49422;SDS011;36998;51.974;20.150;2022-08-07T01:50:10;8.18;;;4.32;;
49422;SDS011;36998;51.974;20.150;2022-08-07T01:52:37;14.98;;;5.43;;
49422;SDS011;36998;51.974;20.150;2022-08-07T01:55:04;7.88;;;4.75;;
49422;SDS011;36998;51.974;20.150;2022-08-07T01:57:37;9.43;;;5.22;;
49422;SDS011;36998;51.974;20.150;2022-08-07T02:00:07;6.82;;;5.18;;
49422;SDS011;36998;51.974;20.150;2022-08-07T02:02:52;10.93;;;6.78;;
49422;SDS011;36998;51.974;20.150;2022-08-07T02:05:25;12.65;;;6.20;;
49422;SDS011;36998;51.974;20.150;2022-08-07T02:08:00;12.43;;;6.38;;
49422;SDS011;36998;51.974;20.150;2022-08-07T02:10:33;13.85;;;6.50;;
49422;SDS011;36998;51.974;20.150;2022-08-07T02:13:03;13.27;;;6.63;;
49422;SDS011;36998;51.974;20.150;2022-08-07T02:15:35;12.98;;;6.47;;
49422;SDS011;36998;51.974;20.150;2022-08-07T02:18:03;13.35;;;7.78;;
49422;SDS011;36998;51.974;20.150;2022-08-07T02:20:30;12.25;;;7.50;;
49422;SDS011;36998;51.974;20.150;2022-08-07T02:23:01;12.93;;;7.85;;
49422;SDS011;36998;51.974;20.150;2022-08-07T02:25:30;18.85;;;8.05;;
49422;SDS011;36998;51.974;20.150;2022-08-07T02:27:59;12.70;;;8.02;;
49422;SDS011;36998;51.974;20.150;2022-08-07T02:30:27;17.23;;;8.02;;
49422;SDS011;36998;51.974;20.150;2022-08-07T02:32:54;15.20;;;8.30;;
49422;SDS011;36998;51.974;20.150;2022-08-07T02:35:22;13.23;;;8.18;;
49422;SDS011;36998;51.974;20.150;2022-08-07T02:37:52;17.02;;;8.18;;
49422;SDS011;36998;51.974;20.150;2022-08-07T02:40:19;16.98;;;9.20;;
49422;SDS011;36998;51.974;20.150;2022-08-07T02:42:45;19.25;;;10.07;;
49422;SDS011;36998;51.974;20.150;2022-08-07T02:45:12;21.15;;;9.80;;
49422;SDS011;36998;51.974;20.150;2022-08-07T02:47:40;20.77;;;9.20;;
49422;SDS011;36998;51.974;20.150;2022-08-07T02:50:13;17.90;;;9.60;;
49422;SDS011;36998;51.974;20.150;2022-08-07T02:52:48;26.05;;;9.63;;
49422;SDS011;36998;51.974;20.150;2022-08-07T02:57:50;12.85;;;8.65;;
49422;SDS011;36998;51.974;20.150;2022-08-07T03:00:18;12.33;;;8.73;;
49422;SDS011;36998;51.974;20.150;2022-08-07T03:02:46;19.58;;;9.38;;
49422;SDS011;36998;51.974;20.150;2022-08-07T03:05:14;17.27;;;9.45;;
49422;SDS011;36998;51.974;20.150;2022-08-07T03:07:40;16.30;;;8.82;;
49422;SDS011;36998;51.974;20.150;2022-08-07T03:10:08;24.85;;;9.30;;
49422;SDS011;36998;51.974;20.150;2022-08-07T03:12:35;17.58;;;8.73;;
49422;SDS011;36998;51.974;20.150;2022-08-07T03:15:08;13.85;;;8.50;;
49422;SDS011;36998;51.974;20.150;2022-08-07T03:17:35;17.80;;;8.75;;
49422;SDS011;36998;51.974;20.150;2022-08-07T03:20:04;20.27;;;9.15;;
49422;SDS011;36998;51.974;20.150;2022-08-07T03:22:30;18.60;;;9.65;;
49422;SDS011;36998;51.974;20.150;2022-08-07T03:24:58;16.52;;;9.07;;
49422;SDS011;36998;51.974;20.150;2022-08-07T03:27:25;17.63;;;9.13;;
49422;SDS011;36998;51.974;20.150;2022-08-07T03:29:52;19.70;;;9.32;;
49422;SDS011;36998;51.974;20.150;2022-08-07T03:32:26;16.95;;;9.07;;
49422;SDS011;36998;51.974;20.150;2022-08-07T03:34:56;19.95;;;10.00;;
49422;SDS011;36998;51.974;20.150;2022-08-07T03:37:30;16.52;;;10.07;;
49422;SDS011;36998;51.974;20.150;2022-08-07T03:42:24;13.90;;;7.90;;
49422;SDS011;36998;51.974;20.150;2022-08-07T03:44:51;16.85;;;8.82;;
49422;SDS011;36998;51.974;20.150;2022-08-07T03:47:17;16.33;;;8.38;;
49422;SDS011;36998;51.974;20.150;2022-08-07T03:49:45;20.40;;;9.57;;
49422;SDS011;36998;51.974;20.150;2022-08-07T03:52:11;17.85;;;8.18;;
49422;SDS011;36998;51.974;20.150;2022-08-07T03:54:39;16.60;;;8.10;;
49422;SDS011;36998;51.974;20.150;2022-08-07T03:57:07;17.05;;;7.60;;
49422;SDS011;36998;51.974;20.150;2022-08-07T03:59:36;16.05;;;8.73;;
49422;SDS011;36998;51.974;20.150;2022-08-07T04:02:03;14.32;;;7.82;;
49422;SDS011;36998;51.974;20.150;2022-08-07T04:04:30;13.00;;;7.50;;
49422;SDS011;36998;51.974;20.150;2022-08-07T04:06:59;17.00;;;7.82;;
49422;SDS011;36998;51.974;20.150;2022-08-07T04:09:25;16.55;;;7.47;;
49422;SDS011;36998;51.974;20.150;2022-08-07T04:11:55;16.58;;;7.70;;
49422;SDS011;36998;51.974;20.150;2022-08-07T04:14:21;13.10;;;7.25;;
49422;SDS011;36998;51.974;20.150;2022-08-07T04:16:49;14.52;;;7.40;;
49422;SDS011;36998;51.974;20.150;2022-08-07T04:19:15;14.68;;;7.65;;
49422;SDS011;36998;51.974;20.150;2022-08-07T04:21:47;14.40;;;7.30;;
49422;SDS011;36998;51.974;20.150;2022-08-07T04:24:13;14.98;;;7.18;;
49422;SDS011;36998;51.974;20.150;2022-08-07T04:26:40;11.10;;;6.47;;
49422;SDS011;36998;51.974;20.150;2022-08-07T04:29:07;10.73;;;6.68;;
49422;SDS011;36998;51.974;20.150;2022-08-07T04:31:35;9.57;;;6.07;;
49422;SDS011;36998;51.974;20.150;2022-08-07T04:34:02;12.20;;;6.63;;
49422;SDS011;36998;51.974;20.150;2022-08-07T04:36:28;12.32;;;6.72;;
49422;SDS011;36998;51.974;20.150;2022-08-07T04:38:53;11.13;;;6.35;;
49422;SDS011;36998;51.974;20.150;2022-08-07T04:41:19;15.10;;;5.97;;
49422;SDS011;36998;51.974;20.150;2022-08-07T04:43:48;14.05;;;6.28;;
49422;SDS011;36998;51.974;20.150;2022-08-07T04:49:00;15.40;;;5.97;;
49422;SDS011;36998;51.974;20.150;2022-08-07T04:56:48;11.77;;;6.10;;
49422;SDS011;36998;51.974;20.150;2022-08-07T05:02:13;14.88;;;8.13;;
49422;SDS011;36998;51.974;20.150;2022-08-07T05:07:57;12.63;;;5.75;;
49422;SDS011;36998;51.974;20.150;2022-08-07T05:10:29;10.05;;;5.20;;
49422;SDS011;36998;51.974;20.150;2022-08-07T05:13:16;7.68;;;4.88;;
49422;SDS011;36998;51.974;20.150;2022-08-07T05:15:48;9.93;;;5.10;;
49422;SDS011;36998;51.974;20.150;2022-08-07T05:18:29;7.07;;;5.22;;
49422;SDS011;36998;51.974;20.150;2022-08-07T05:21:00;7.28;;;4.75;;
49422;SDS011;36998;51.974;20.150;2022-08-07T05:23:31;9.70;;;5.13;;
49422;SDS011;36998;51.974;20.150;2022-08-07T05:26:01;7.88;;;4.63;;
49422;SDS011;36998;51.974;20.150;2022-08-07T05:28:28;9.20;;;4.88;;
49422;SDS011;36998;51.974;20.150;2022-08-07T05:30:57;11.82;;;5.55;;
49422;SDS011;36998;51.974;20.150;2022-08-07T05:33:26;12.13;;;5.57;;
49422;SDS011;36998;51.974;20.150;2022-08-07T05:35:54;9.57;;;5.07;;
49422;SDS011;36998;51.974;20.150;2022-08-07T05:38:22;11.18;;;5.20;;
49422;SDS011;36998;51.974;20.150;2022-08-07T05:40:49;9.90;;;5.07;;
49422;SDS011;36998;51.974;20.150;2022-08-07T05:43:15;12.38;;;5.63;;
49422;SDS011;36998;51.974;20.150;2022-08-07T05:45:42;12.10;;;4.95;;
49422;SDS011;36998;51.974;20.150;2022-08-07T05:48:08;9.07;;;5.57;;
49422;SDS011;36998;51.974;20.150;2022-08-07T05:50:38;8.73;;;5.70;;
49422;SDS011;36998;51.974;20.150;2022-08-07T05:53:04;11.00;;;7.05;;
49422;SDS011;36998;51.974;20.150;2022-08-07T05:55:32;11.23;;;6.25;;
49422;SDS011;36998;51.974;20.150;2022-08-07T05:57:58;10.27;;;6.10;;
49422;SDS011;36998;51.974;20.150;2022-08-07T06:00:26;10.38;;;6.30;;
49422;SDS011;36998;51.974;20.150;2022-08-07T06:02:59;5.90;;;3.95;;
49422;SDS011;36998;51.974;20.150;2022-08-07T06:05:28;37.13;;;18.92;;
49422;SDS011;36998;51.974;20.150;2022-08-07T06:08:00;6.47;;;3.65;;
49422;SDS011;36998;51.974;20.150;2022-08-07T06:10:26;3.67;;;3.08;;
49422;SDS011;36998;51.974;20.150;2022-08-07T06:12:53;6.28;;;3.08;;
49422;SDS011;36998;51.974;20.150;2022-08-07T06:15:19;4.93;;;2.83;;
49422;SDS011;36998;51.974;20.150;2022-08-07T06:17:46;5.47;;;3.13;;
49422;SDS011;36998;51.974;20.150;2022-08-07T06:20:13;6.80;;;2.53;;
49422;SDS011;36998;51.974;20.150;2022-08-07T06:22:39;16.67;;;2.70;;
49422;SDS011;36998;51.974;20.150;2022-08-07T06:25:22;6.85;;;2.50;;
49422;SDS011;36998;51.974;20.150;2022-08-07T06:27:47;4.20;;;1.80;;
49422;SDS011;36998;51.974;20.150;2022-08-07T06:30:13;6.30;;;1.80;;
49422;SDS011;36998;51.974;20.150;2022-08-07T06:32:39;6.68;;;2.13;;
49422;SDS011;36998;51.974;20.150;2022-08-07T06:35:04;5.68;;;2.20;;
49422;SDS011;36998;51.974;20.150;2022-08-07T06:37:30;6.57;;;1.77;;
49422;SDS011;36998;51.974;20.150;2022-08-07T06:39:55;11.88;;;8.05;;
49422;SDS011;36998;51.974;20.150;2022-08-07T06:42:25;2.75;;;1.95;;
49422;SDS011;36998;51.974;20.150;2022-08-07T06:45:21;7.13;;;1.40;;
49422;SDS011;36998;51.974;20.150;2022-08-07T06:47:54;2.53;;;1.10;;
49422;SDS011;36998;51.974;20.150;2022-08-07T06:50:20;3.10;;;1.30;;
49422;SDS011;36998;51.974;20.150;2022-08-07T06:52:47;7.88;;;4.15;;
49422;SDS011;36998;51.974;20.150;2022-08-07T06:55:19;3.78;;;1.60;;
49422;SDS011;36998;51.974;20.150;2022-08-07T06:57:48;4.75;;;1.25;;
49422;SDS011;36998;51.974;20.150;2022-08-07T07:00:18;2.05;;;0.85;;
49422;SDS011;36998;51.974;20.150;2022-08-07T07:02:46;5.07;;;0.95;;
49422;SDS011;36998;51.974;20.150;2022-08-07T07:05:12;2.25;;;0.90;;
49422;SDS011;36998;51.974;20.150;2022-08-07T07:07:39;3.47;;;0.90;;
49422;SDS011;36998;51.974;20.150;2022-08-07T07:10:05;4.53;;;1.20;;
49422;SDS011;36998;51.974;20.150;2022-08-07T07:12:35;2.33;;;0.88;;
49422;SDS011;36998;51.974;20.150;2022-08-07T07:15:03;5.38;;;1.02;;
49422;SDS011;36998;51.974;20.150;2022-08-07T07:20:17;4.75;;;0.65;;
49422;SDS011;36998;51.974;20.150;2022-08-07T07:22:46;3.63;;;0.60;;
49422;SDS011;36998;51.974;20.150;2022-08-07T07:25:13;2.33;;;0.80;;
49422;SDS011;36998;51.974;20.150;2022-08-07T07:27:47;2.40;;;0.73;;
49422;SDS011;36998;51.974;20.150;2022-08-07T07:30:17;1.38;;;1.00;;
49422;SDS011;36998;51.974;20.150;2022-08-07T07:32:47;3.88;;;1.90;;
49422;SDS011;36998;51.974;20.150;2022-08-07T07:35:16;2.30;;;1.00;;
49422;SDS011;36998;51.974;20.150;2022-08-07T07:37:42;4.50;;;1.00;;
49422;SDS011;36998;51.974;20.150;2022-08-07T07:40:11;1.90;;;0.65;;
49422;SDS011;36998;51.974;20.150;2022-08-07T07:42:41;3.33;;;1.85;;
49422;SDS011;36998;51.974;20.150;2022-08-07T07:45:08;3.75;;;1.13;;
49422;SDS011;36998;51.974;20.150;2022-08-07T07:47:37;3.28;;;1.60;;
49422;SDS011;36998;51.974;20.150;2022-08-07T07:50:07;4.70;;;1.08;;
49422;SDS011;36998;51.974;20.150;2022-08-07T07:52:36;1.90;;;0.70;;
49422;SDS011;36998;51.974;20.150;2022-08-07T07:55:03;2.28;;;0.60;;
49422;SDS011;36998;51.974;20.150;2022-08-07T07:57:31;2.67;;;1.15;;
49422;SDS011;36998;51.974;20.150;2022-08-07T07:59:59;2.35;;;0.90;;
49422;SDS011;36998;51.974;20.150;2022-08-07T08:02:37;1.95;;;0.75;;
49422;SDS011;36998;51.974;20.150;2022-08-07T08:05:06;4.95;;;0.85;;
49422;SDS011;36998;51.974;20.150;2022-08-07T08:07:32;3.22;;;0.80;;
49422;SDS011;36998;51.974;20.150;2022-08-07T08:10:00;4.40;;;1.27;;
49422;SDS011;36998;51.974;20.150;2022-08-07T08:12:28;2.65;;;0.80;;
49422;SDS011;36998;51.974;20.150;2022-08-07T08:14:55;1.55;;;0.80;;
49422;SDS011;36998;51.974;20.150;2022-08-07T08:17:21;2.60;;;0.93;;
49422;SDS011;36998;51.974;20.150;2022-08-07T08:19:47;4.30;;;0.85;;
49422;SDS011;36998;51.974;20.150;2022-08-07T08:22:17;4.07;;;1.27;;
49422;SDS011;36998;51.974;20.150;2022-08-07T08:25:04;2.42;;;1.38;;
49422;SDS011;36998;51.974;20.150;2022-08-07T08:27:50;5.57;;;2.08;;
49422;SDS011;36998;51.974;20.150;2022-08-07T08:30:18;2.88;;;1.05;;
49422;SDS011;36998;51.974;20.150;2022-08-07T08:32:53;2.72;;;1.05;;
49422;SDS011;36998;51.974;20.150;2022-08-07T08:35:23;3.10;;;0.98;;
49422;SDS011;36998;51.974;20.150;2022-08-07T08:37:50;3.95;;;1.40;;
49422;SDS011;36998;51.974;20.150;2022-08-07T08:40:23;2.80;;;0.95;;
49422;SDS011;36998;51.974;20.150;2022-08-07T08:43:00;2.50;;;1.85;;
49422;SDS011;36998;51.974;20.150;2022-08-07T08:45:43;2.95;;;0.88;;
49422;SDS011;36998;51.974;20.150;2022-08-07T08:50:53;0.80;;;0.80;;
49422;SDS011;36998;51.974;20.150;2022-08-07T08:53:29;2.05;;;0.90;;
49422;SDS011;36998;51.974;20.150;2022-08-07T08:56:03;1.80;;;0.77;;
49422;SDS011;36998;51.974;20.150;2022-08-07T08:58:42;3.47;;;0.82;;
49422;SDS011;36998;51.974;20.150;2022-08-07T09:03:58;1.52;;;0.80;;
49422;SDS011;36998;51.974;20.150;2022-08-07T09:06:51;3.78;;;0.95;;
49422;SDS011;36998;51.974;20.150;2022-08-07T09:12:03;3.40;;;0.93;;
49422;SDS011;36998;51.974;20.150;2022-08-07T09:15:02;3.58;;;0.90;;
49422;SDS011;36998;51.974;20.150;2022-08-07T09:17:36;2.08;;;1.00;;
49422;SDS011;36998;51.974;20.150;2022-08-07T09:20:28;3.78;;;1.00;;
49422;SDS011;36998;51.974;20.150;2022-08-07T09:25:40;3.17;;;0.82;;
49422;SDS011;36998;51.974;20.150;2022-08-07T09:28:24;2.35;;;0.77;;
49422;SDS011;36998;51.974;20.150;2022-08-07T09:31:05;1.80;;;1.08;;
49422;SDS011;36998;51.974;20.150;2022-08-07T09:34:05;1.48;;;0.80;;
49422;SDS011;36998;51.974;20.150;2022-08-07T09:48:16;1.83;;;1.13;;
49422;SDS011;36998;51.974;20.150;2022-08-07T09:50:24;2.40;;;1.15;;
49422;SDS011;36998;51.974;20.150;2022-08-07T09:53:13;2.15;;;0.90;;
49422;SDS011;36998;51.974;20.150;2022-08-07T10:01:57;5.50;;;0.75;;
49422;SDS011;36998;51.974;20.150;2022-08-07T10:07:58;1.27;;;0.65;;
49422;SDS011;36998;51.974;20.150;2022-08-07T10:10:53;3.67;;;1.25;;
49422;SDS011;36998;51.974;20.150;2022-08-07T10:22:08;2.75;;;0.70;;
49422;SDS011;36998;51.974;20.150;2022-08-07T10:25:01;3.22;;;0.95;;
49422;SDS011;36998;51.974;20.150;2022-08-07T10:27:45;3.55;;;1.20;;
49422;SDS011;36998;51.974;20.150;2022-08-07T10:30:26;3.25;;;1.05;;
49422;SDS011;36998;51.974;20.150;2022-08-07T10:33:13;2.33;;;0.85;;
49422;SDS011;36998;51.974;20.150;2022-08-07T10:35:59;1.42;;;0.88;;
49422;SDS011;36998;51.974;20.150;2022-08-07T10:38:36;1.92;;;0.70;;
49422;SDS011;36998;51.974;20.150;2022-08-07T10:41:08;5.47;;;1.90;;
49422;SDS011;36998;51.974;20.150;2022-08-07T10:46:27;2.25;;;0.65;;
49422;SDS011;36998;51.974;20.150;2022-08-07T10:51:54;3.13;;;0.73;;
49422;SDS011;36998;51.974;20.150;2022-08-07T10:54:31;2.85;;;0.93;;
49422;SDS011;36998;51.974;20.150;2022-08-07T10:59:46;4.70;;;0.70;;
49422;SDS011;36998;51.974;20.150;2022-08-07T11:02:38;1.23;;;0.65;;
49422;SDS011;36998;51.974;20.150;2022-08-07T11:10:58;1.60;;;0.60;;
49422;SDS011;36998;51.974;20.150;2022-08-07T11:13:38;2.03;;;0.90;;
49422;SDS011;36998;51.974;20.150;2022-08-07T11:19:23;1.23;;;0.77;;
49422;SDS011;36998;51.974;20.150;2022-08-07T11:22:04;2.30;;;1.42;;
49422;SDS011;36998;51.974;20.150;2022-08-07T11:30:10;1.88;;;0.60;;
49422;SDS011;36998;51.974;20.150;2022-08-07T11:32:39;2.20;;;1.00;;
49422;SDS011;36998;51.974;20.150;2022-08-07T11:35:16;1.70;;;0.85;;
49422;SDS011;36998;51.974;20.150;2022-08-07T11:41:00;0.95;;;0.57;;
49422;SDS011;36998;51.974;20.150;2022-08-07T11:44:02;0.80;;;0.60;;
49422;SDS011;36998;51.974;20.150;2022-08-07T11:57:43;1.85;;;0.52;;
49422;SDS011;36998;51.974;20.150;2022-08-07T12:03:35;2.00;;;0.60;;
49422;SDS011;36998;51.974;20.150;2022-08-07T12:08:58;1.90;;;0.90;;
49422;SDS011;36998;51.974;20.150;2022-08-07T12:11:34;1.17;;;0.60;;
49422;SDS011;36998;51.974;20.150;2022-08-07T12:14:10;1.40;;;0.70;;
49422;SDS011;36998;51.974;20.150;2022-08-07T12:16:46;5.15;;;0.80;;
49422;SDS011;36998;51.974;20.150;2022-08-07T12:21:49;0.60;;;0.60;;
49422;SDS011;36998;51.974;20.150;2022-08-07T12:24:24;1.92;;;0.70;;
49422;SDS011;36998;51.974;20.150;2022-08-07T12:27:07;1.17;;;0.60;;
49422;SDS011;36998;51.974;20.150;2022-08-07T12:29:50;1.15;;;0.80;;
49422;SDS011;36998;51.974;20.150;2022-08-07T12:32:35;1.05;;;0.70;;
49422;SDS011;36998;51.974;20.150;2022-08-07T12:35:07;2.58;;;0.85;;
49422;SDS011;36998;51.974;20.150;2022-08-07T12:37:36;4.20;;;1.48;;
49422;SDS011;36998;51.974;20.150;2022-08-07T12:42:31;1.33;;;0.93;;
49422;SDS011;36998;51.974;20.150;2022-08-07T12:45:08;1.20;;;0.75;;
49422;SDS011;36998;51.974;20.150;2022-08-07T12:47:47;0.93;;;0.60;;
49422;SDS011;36998;51.974;20.150;2022-08-07T12:50:35;1.17;;;0.70;;
49422;SDS011;36998;51.974;20.150;2022-08-07T12:53:11;2.70;;;0.70;;
49422;SDS011;36998;51.974;20.150;2022-08-07T12:58:11;2.22;;;0.85;;
49422;SDS011;36998;51.974;20.150;2022-08-07T13:03:34;1.25;;;1.00;;
49422;SDS011;36998;51.974;20.150;2022-08-07T13:08:34;1.20;;;1.10;;
49422;SDS011;36998;51.974;20.150;2022-08-07T13:13:54;1.52;;;1.50;;
49422;SDS011;36998;51.974;20.150;2022-08-07T13:19:10;0.77;;;0.77;;
49422;SDS011;36998;51.974;20.150;2022-08-07T13:21:48;1.05;;;0.90;;
49422;SDS011;36998;51.974;20.150;2022-08-07T13:29:21;2.65;;;2.47;;
49422;SDS011;36998;51.974;20.150;2022-08-07T13:31:52;0.93;;;0.90;;
49422;SDS011;36998;51.974;20.150;2022-08-07T13:37:15;2.10;;;0.90;;
49422;SDS011;36998;51.974;20.150;2022-08-07T13:43:00;0.98;;;0.98;;
49422;SDS011;36998;51.974;20.150;2022-08-07T13:45:34;0.95;;;0.90;;
49422;SDS011;36998;51.974;20.150;2022-08-07T13:48:03;2.67;;;1.45;;
49422;SDS011;36998;51.974;20.150;2022-08-07T13:50:31;3.15;;;1.50;;
49422;SDS011;36998;51.974;20.150;2022-08-07T13:52:56;2.38;;;1.27;;
49422;SDS011;36998;51.974;20.150;2022-08-07T13:55:23;1.30;;;1.30;;
49422;SDS011;36998;51.974;20.150;2022-08-07T13:58:09;1.30;;;1.30;;
49422;SDS011;36998;51.974;20.150;2022-08-07T14:00:56;1.73;;;1.55;;
49422;SDS011;36998;51.974;20.150;2022-08-07T14:03:24;1.70;;;1.60;;
49422;SDS011;36998;51.974;20.150;2022-08-07T14:05:54;1.58;;;1.58;;
49422;SDS011;36998;51.974;20.150;2022-08-07T14:08:21;3.70;;;1.52;;
49422;SDS011;36998;51.974;20.150;2022-08-07T14:10:49;4.35;;;1.45;;
49422;SDS011;36998;51.974;20.150;2022-08-07T14:13:19;2.90;;;1.50;;
49422;SDS011;36998;51.974;20.150;2022-08-07T14:15:52;3.00;;;1.75;;
49422;SDS011;36998;51.974;20.150;2022-08-07T14:18:26;2.33;;;1.60;;
49422;SDS011;36998;51.974;20.150;2022-08-07T14:21:04;1.70;;;1.60;;
49422;SDS011;36998;51.974;20.150;2022-08-07T14:23:33;1.52;;;1.50;;
49422;SDS011;36998;51.974;20.150;2022-08-07T14:28:31;1.70;;;1.60;;
49422;SDS011;36998;51.974;20.150;2022-08-07T14:31:01;1.83;;;1.60;;
49422;SDS011;36998;51.974;20.150;2022-08-07T14:33:30;1.73;;;1.50;;
49422;SDS011;36998;51.974;20.150;2022-08-07T14:35:58;1.55;;;1.45;;
49422;SDS011;36998;51.974;20.150;2022-08-07T14:38:26;1.87;;;1.47;;
49422;SDS011;36998;51.974;20.150;2022-08-07T14:40:55;1.60;;;1.50;;
49422;SDS011;36998;51.974;20.150;2022-08-07T14:43:21;2.30;;;1.33;;
49422;SDS011;36998;51.974;20.150;2022-08-07T14:45:50;1.10;;;1.10;;
49422;SDS011;36998;51.974;20.150;2022-08-07T14:48:21;1.70;;;1.60;;
49422;SDS011;36998;51.974;20.150;2022-08-07T14:50:51;1.63;;;1.30;;
49422;SDS011;36998;51.974;20.150;2022-08-07T14:53:19;2.90;;;1.50;;
49422;SDS011;36998;51.974;20.150;2022-08-07T14:55:46;1.50;;;1.40;;
49422;SDS011;36998;51.974;20.150;2022-08-07T14:58:13;1.52;;;1.42;;
49422;SDS011;36998;51.974;20.150;2022-08-07T15:00:41;1.50;;;1.40;;
49422;SDS011;36998;51.974;20.150;2022-08-07T15:03:09;1.50;;;1.40;;
49422;SDS011;36998;51.974;20.150;2022-08-07T15:05:36;2.83;;;1.10;;
49422;SDS011;36998;51.974;20.150;2022-08-07T15:08:05;1.00;;;0.70;;
49422;SDS011;36998;51.974;20.150;2022-08-07T15:10:34;2.42;;;2.28;;
49422;SDS011;36998;51.974;20.150;2022-08-07T15:13:14;1.38;;;1.27;;
49422;SDS011;36998;51.974;20.150;2022-08-07T15:15:43;1.30;;;1.30;;
49422;SDS011;36998;51.974;20.150;2022-08-07T15:18:20;1.45;;;1.40;;
49422;SDS011;36998;51.974;20.150;2022-08-07T15:20:56;3.95;;;1.65;;
49422;SDS011;36998;51.974;20.150;2022-08-07T15:23:27;2.50;;;1.27;;
49422;SDS011;36998;51.974;20.150;2022-08-07T15:25:57;2.80;;;1.50;;
49422;SDS011;36998;51.974;20.150;2022-08-07T15:28:26;1.75;;;1.17;;
49422;SDS011;36998;51.974;20.150;2022-08-07T15:30:57;2.92;;;1.38;;
49422;SDS011;36998;51.974;20.150;2022-08-07T15:33:27;1.45;;;1.35;;
49422;SDS011;36998;51.974;20.150;2022-08-07T15:35:56;1.40;;;0.70;;
49422;SDS011;36998;51.974;20.150;2022-08-07T15:38:26;1.13;;;1.13;;
49422;SDS011;36998;51.974;20.150;2022-08-07T15:40:55;1.60;;;1.50;;
49422;SDS011;36998;51.974;20.150;2022-08-07T15:43:22;1.20;;;1.20;;
49422;SDS011;36998;51.974;20.150;2022-08-07T15:45:49;2.40;;;1.13;;
49422;SDS011;36998;51.974;20.150;2022-08-07T15:48:25;1.80;;;1.60;;
49422;SDS011;36998;51.974;20.150;2022-08-07T15:50:55;3.08;;;1.10;;
49422;SDS011;36998;51.974;20.150;2022-08-07T15:53:34;1.83;;;1.10;;
49422;SDS011;36998;51.974;20.150;2022-08-07T15:56:04;2.85;;;1.40;;
49422;SDS011;36998;51.974;20.150;2022-08-07T15:58:37;2.28;;;1.20;;
49422;SDS011;36998;51.974;20.150;2022-08-07T16:01:12;1.00;;;1.00;;
49422;SDS011;36998;51.974;20.150;2022-08-07T16:03:43;1.52;;;1.10;;
49422;SDS011;36998;51.974;20.150;2022-08-07T16:06:10;2.13;;;1.10;;
49422;SDS011;36998;51.974;20.150;2022-08-07T16:08:39;1.83;;;1.17;;
49422;SDS011;36998;51.974;20.150;2022-08-07T16:11:10;3.25;;;1.30;;
49422;SDS011;36998;51.974;20.150;2022-08-07T16:13:57;2.40;;;1.10;;
49422;SDS011;36998;51.974;20.150;2022-08-07T16:16:39;1.90;;;1.20;;
49422;SDS011;36998;51.974;20.150;2022-08-07T16:24:55;2.90;;;1.00;;
49422;SDS011;36998;51.974;20.150;2022-08-07T16:27:27;3.55;;;1.17;;
49422;SDS011;36998;51.974;20.150;2022-08-07T16:32:24;0.90;;;0.90;;
49422;SDS011;36998;51.974;20.150;2022-08-07T16:34:56;1.30;;;0.93;;
49422;SDS011;36998;51.974;20.150;2022-08-07T16:54:26;4.38;;;1.15;;
49422;SDS011;36998;51.974;20.150;2022-08-07T16:57:07;1.38;;;1.25;;
49422;SDS011;36998;51.974;20.150;2022-08-07T17:00:04;2.63;;;1.00;;
49422;SDS011;36998;51.974;20.150;2022-08-07T17:08:09;1.20;;;1.00;;
49422;SDS011;36998;51.974;20.150;2022-08-07T17:16:05;2.30;;;1.00;;
49422;SDS011;36998;51.974;20.150;2022-08-07T17:18:39;1.40;;;1.02;;
49422;SDS011;36998;51.974;20.150;2022-08-07T17:21:28;2.28;;;1.20;;
49422;SDS011;36998;51.974;20.150;2022-08-07T17:27:12;2.25;;;1.38;;
49422;SDS011;36998;51.974;20.150;2022-08-07T17:30:06;2.50;;;1.25;;
49422;SDS011;36998;51.974;20.150;2022-08-07T17:32:51;3.50;;;1.92;;
49422;SDS011;36998;51.974;20.150;2022-08-07T17:41:40;3.03;;;1.75;;
49422;SDS011;36998;51.974;20.150;2022-08-07T17:44:24;4.30;;;2.05;;
49422;SDS011;36998;51.974;20.150;2022-08-07T17:47:10;3.10;;;1.30;;
49422;SDS011;36998;51.974;20.150;2022-08-07T17:49:46;2.53;;;1.08;;
49422;SDS011;36998;51.974;20.150;2022-08-07T17:52:18;1.80;;;1.08;;
49422;SDS011;36998;51.974;20.150;2022-08-07T17:55:03;3.08;;;0.82;;
49422;SDS011;36998;51.974;20.150;2022-08-07T18:00:08;4.53;;;0.90;;